Time;durP1;ratioP1;P1;durP2;ratioP2;P2;SDS_P1;SDS_P2;PMS_P1;PMS_P2;Temp;Humidity;BMP_temperature;BMP_pressure;BME280_temperature;BME280_humidity;BME280_pressure;Samples;Min_cycle;Max_cycle;Signal;HPM_P1;HPM_P2
2022/04/01 00:01:17;;;;;;;4.07;2.20;;;-1.50;1.00;;;-1.88;72.52;98433.13;5061118;27;129432;-64
2022/04/01 00:03:47;;;;;;;5.18;2.22;;;-1.50;1.00;;;-1.91;72.48;98436.28;5045910;27;119077;-68
2022/04/01 00:06:16;;;;;;;3.90;2.08;;;-1.60;1.00;;;-2.00;71.61;98437.81;5061068;27;120054;-69
2022/04/01 00:08:44;;;;;;;4.03;2.00;;;-1.50;1.00;;;-1.96;71.61;98430.94;5059600;27;130238;-67
2022/04/01 00:11:13;;;;;;;5.35;2.38;;;-1.40;1.00;;;-1.96;71.83;98428.28;5060484;27;129377;-65
2022/04/01 00:13:43;;;;;;;3.67;2.00;;;-1.50;1.00;;;-1.89;71.73;98423.53;5060993;27;120945;-66
2022/04/01 00:16:11;;;;;;;3.45;1.88;;;-1.50;1.00;;;-1.82;71.19;98418.78;5059485;27;119512;-65
2022/04/01 00:18:40;;;;;;;4.10;2.10;;;-1.50;1.00;;;-1.86;71.33;98428.34;5061617;27;130504;-65
2022/04/01 00:21:08;;;;;;;3.63;2.28;;;-1.50;1.00;;;-1.83;71.06;98421.72;5042137;27;129454;-65
2022/04/01 00:23:37;;;;;;;3.83;1.88;;;-1.50;1.00;;;-1.82;71.02;98424.13;5045605;27;118594;-63
2022/04/01 00:26:06;;;;;;;4.60;2.25;;;-1.50;1.00;;;-1.99;71.58;98426.13;5042489;27;119283;-63
2022/04/01 00:28:35;;;;;;;4.63;2.00;;;-1.50;1.00;;;-1.90;71.78;98418.47;5060324;27;130465;-64
2022/04/01 00:31:05;;;;;;;3.83;2.13;;;-1.50;1.00;;;-1.87;71.43;98408.13;5060072;27;129271;-66
2022/04/01 00:33:33;;;;;;;4.53;1.98;;;-1.60;1.00;;;-2.01;72.14;98418.41;5059017;27;121960;-64
2022/04/01 00:36:02;;;;;;;5.88;2.28;;;-1.60;1.00;;;-2.02;72.83;98411.47;5060396;27;121970;-63
2022/04/01 00:38:31;;;;;;;3.17;1.85;;;-1.50;1.00;;;-2.05;72.70;98412.00;5059896;27;130391;-63
2022/04/01 00:41:00;;;;;;;4.25;1.98;;;-1.50;1.00;;;-1.99;72.79;98404.84;5041494;27;130667;-65
2022/04/01 00:43:28;;;;;;;5.00;2.20;;;-1.50;1.00;;;-1.94;72.64;98404.88;5062161;27;118877;-71
2022/04/01 00:45:57;;;;;;;4.00;2.40;;;-1.60;1.00;;;-2.17;73.06;98404.22;5045321;27;119988;-66
2022/04/01 00:48:27;;;;;;;3.92;2.20;;;-1.50;1.00;;;-2.13;73.49;98401.03;5059888;27;129731;-63
2022/04/01 00:50:56;;;;;;;4.97;2.20;;;-1.50;1.00;;;-2.09;73.40;98392.28;5060202;27;129506;-64
2022/04/01 00:53:25;;;;;;;4.63;2.05;;;-1.50;1.00;;;-2.11;73.51;98396.25;5060022;27;119211;-69
2022/04/01 00:55:54;;;;;;;4.85;2.35;;;-1.50;1.00;;;-1.97;73.00;98399.28;5062207;27;119157;-65
2022/04/01 00:58:25;;;;;;;3.70;2.08;;;-1.50;1.00;;;-2.03;72.62;98396.56;5058263;27;129875;-65
2022/04/01 01:00:53;;;;;;;4.47;2.10;;;-1.50;1.00;;;-1.88;72.37;98397.75;5044494;27;129026;-64
2022/04/01 01:03:22;;;;;;;4.93;1.90;;;-1.50;1.00;;;-2.03;72.81;98403.75;5060151;27;119325;-65
2022/04/01 01:05:52;;;;;;;4.32;2.17;;;-1.50;1.00;;;-1.96;72.67;98399.03;5044871;27;119012;-64
2022/04/01 01:08:22;;;;;;;4.97;2.20;;;-1.50;1.00;;;-2.00;72.67;98403.25;5041161;27;129815;-64
2022/04/01 01:10:50;;;;;;;4.88;2.08;;;-1.50;1.00;;;-2.13;73.10;98404.50;5041380;27;129508;-65
2022/04/01 01:13:18;;;;;;;4.07;1.83;;;-1.50;1.00;;;-2.15;73.04;98405.78;5059867;27;121501;-64
2022/04/01 01:15:47;;;;;;;4.93;1.98;;;-1.50;1.00;;;-2.05;72.66;98397.91;5045014;27;118295;-64
2022/04/01 01:18:17;;;;;;;3.22;1.90;;;-1.50;1.00;;;-2.01;72.95;98391.00;5043831;27;130064;-64
2022/04/01 01:20:47;;;;;;;4.93;2.22;;;-1.60;1.00;;;-2.00;72.99;98393.41;5044274;27;128978;-64
2022/04/01 01:23:18;;;;;;;3.70;1.92;;;-1.60;1.00;;;-1.91;73.43;98383.09;5026404;27;121538;-66
2022/04/01 01:25:48;;;;;;;3.97;1.98;;;-1.60;1.00;;;-2.07;73.25;98386.69;5044647;27;121257;-70
2022/04/01 01:28:16;;;;;;;4.50;2.20;;;-1.60;1.00;;;-2.26;74.47;98389.78;5041074;27;129776;-66
2022/04/01 01:30:46;;;;;;;4.68;2.10;;;-1.60;1.00;;;-2.25;74.58;98375.44;5026725;27;129149;-70
2022/04/01 01:33:14;;;;;;;3.40;2.05;;;-1.60;1.00;;;-2.10;74.42;98373.91;5041355;27;119749;-68
2022/04/01 01:35:43;;;;;;;4.80;2.03;;;-1.60;1.00;;;-2.17;74.61;98374.16;5044653;27;119078;-69
2022/04/01 01:38:12;;;;;;;6.20;2.30;;;-1.70;1.00;;;-2.24;75.34;98366.41;5058144;27;129885;-67
2022/04/01 01:40:41;;;;;;;4.10;2.00;;;-1.70;1.00;;;-2.27;75.55;98366.13;5059826;27;131159;-67
2022/04/01 01:43:11;;;;;;;4.30;2.40;;;-1.70;1.00;;;-2.24;75.57;98354.97;5040493;27;120646;-67
2022/04/01 01:45:40;;;;;;;5.00;2.17;;;-1.60;1.00;;;-2.09;75.34;98355.06;5026788;27;118150;-67
2022/04/01 01:48:09;;;;;;;5.60;1.98;;;-1.70;1.00;;;-2.10;75.46;98355.31;5057656;27;129860;-66
2022/04/01 01:56:07;;;;;;;4.70;2.35;;;-1.70;1.00;;;-2.31;77.02;98357.84;5044234;27;118427;-65
2022/04/01 01:58:40;;;;;;;5.22;2.42;;;-1.60;1.00;;;-2.30;77.70;98351.47;5040526;27;130797;-66
2022/04/01 02:01:08;;;;;;;5.43;2.50;;;-1.60;1.00;;;-2.28;78.17;98354.66;5043727;27;129236;-64
2022/04/01 02:03:37;;;;;;;4.60;2.42;;;-1.60;1.00;;;-2.15;78.11;98348.13;5061303;27;119244;-65
2022/04/01 02:06:06;;;;;;;4.68;2.50;;;-1.60;1.00;;;-2.19;78.80;98342.50;5041229;27;119312;-65
2022/04/01 02:08:35;;;;;;;5.20;2.75;;;-1.70;1.00;;;-2.35;79.56;98343.47;5057282;27;130242;-67
2022/04/01 02:11:04;;;;;;;6.30;2.80;;;-1.70;1.00;;;-2.27;79.41;98340.34;5058905;27;129709;-66
2022/04/01 02:13:33;;;;;;;5.70;2.70;;;-1.70;1.00;;;-2.30;80.26;98324.91;5039455;27;122537;-64
2022/04/01 02:16:03;;;;;;;5.00;2.70;;;-1.70;1.00;;;-2.30;80.52;98330.22;5060817;27;122304;-66
2022/04/01 02:18:32;;;;;;;5.40;2.85;;;-1.70;1.00;;;-2.32;81.11;98327.03;5040671;27;130033;-67
2022/04/01 02:21:02;;;;;;;5.47;3.00;;;-1.70;1.00;;;-2.49;82.06;98315.72;5040085;27;129557;-67
2022/04/01 02:23:31;;;;;;;5.32;2.97;;;-1.70;1.00;;;-2.47;82.19;98313.63;5026282;27;119204;-66
2022/04/01 02:26:00;;;;;;;5.47;2.85;;;-1.70;1.00;;;-2.41;82.34;98317.91;5057454;27;119133;-67
2022/04/01 02:28:29;;;;;;;8.95;3.65;;;-1.80;1.00;;;-2.28;82.33;98317.47;5057499;27;130415;-68
2022/04/01 02:30:58;;;;;;;9.65;4.15;;;-1.80;1.00;;;-2.55;83.41;98313.03;5040451;27;129306;-66
2022/04/01 02:34:00;;;;;;;6.22;3.60;;;-1.80;1.00;;;-2.51;84.02;98301.91;5026630;27;119610;-67
2022/04/01 02:36:29;;;;;;;6.30;3.83;;;-1.80;1.00;;;-2.56;84.90;98302.66;5057575;27;119508;-65
2022/04/01 02:38:59;;;;;;;10.00;4.30;;;-1.90;1.00;;;-2.63;85.23;98302.88;5041963;27;130319;-66
2022/04/01 02:41:29;;;;;;;7.50;4.15;;;-1.90;1.00;;;-2.58;85.62;98300.25;5060410;27;128981;-65
2022/04/01 02:44:08;;;;;;;7.97;4.45;;;-1.90;1.00;;;-2.59;85.54;98295.19;5040506;27;119436;-66
2022/04/01 02:46:40;;;;;;;8.95;4.78;;;-2.00;1.00;;;-2.66;86.03;98297.28;5026766;27;118338;-67
2022/04/01 02:49:12;;;;;;;8.55;4.68;;;-2.00;1.00;;;-2.72;86.49;98296.44;5057038;27;130022;-66
2022/04/01 02:51:57;;;;;;;9.48;4.72;;;-2.10;1.00;;;-2.67;86.79;98304.44;5043265;27;128157;-66
2022/04/01 02:54:26;;;;;;;9.00;4.82;;;-2.10;1.00;;;-2.77;87.25;98293.75;5060630;27;119329;-65
2022/04/01 02:56:59;;;;;;;10.88;4.90;;;-2.10;1.00;;;-2.72;87.32;98288.47;5060839;27;119786;-68
2022/04/01 02:59:29;;;;;;;9.85;4.82;;;-2.10;1.00;;;-2.84;87.58;98298.47;5043282;27;130206;-66
2022/04/01 03:01:58;;;;;;;8.80;5.22;;;-2.10;1.00;;;-2.91;88.52;98294.16;5029779;27;129464;-65
2022/04/01 03:04:31;;;;;;;10.00;5.38;;;-2.10;1.00;;;-2.92;88.90;98292.56;5042534;27;121724;-65
2022/04/01 03:07:02;;;;;;;10.23;5.38;;;-2.20;1.00;;;-2.85;88.77;98289.72;5063793;27;121424;-64
2022/04/01 03:09:33;;;;;;;8.00;5.13;;;-2.10;1.00;;;-2.84;88.43;98290.50;5060061;27;130529;-66
2022/04/01 03:12:20;;;;;;;11.20;5.55;;;-2.20;1.00;;;-2.93;89.12;98293.63;5043052;27;129449;-66
2022/04/01 03:14:53;;;;;;;9.55;4.53;;;-2.20;1.00;;;-2.95;89.27;98292.25;5046551;27;118522;-67
2022/04/01 03:17:34;;;;;;;10.82;5.70;;;-2.20;1.00;;;-3.00;89.76;98303.63;5061705;27;119301;-65
2022/04/01 03:20:13;;;;;;;9.60;5.47;;;-2.20;1.00;;;-3.01;89.66;98288.75;5042569;27;129023;-62
2022/04/01 03:22:44;;;;;;;8.85;5.13;;;-2.20;1.00;;;-2.87;89.27;98296.31;5043223;27;129251;-63
2022/04/01 03:25:18;;;;;;;8.63;5.10;;;-2.30;1.00;;;-2.88;89.31;98284.91;5039941;27;119590;-64
2022/04/01 03:28:20;;;;;;;10.38;5.30;;;-2.30;1.00;;;-2.92;89.44;98292.56;5036555;27;120097;-61
2022/04/01 03:30:53;;;;;;;10.23;5.25;;;-2.30;1.00;;;-2.93;89.82;98279.53;5038156;27;130022;-62
2022/04/01 03:33:27;;;;;;;10.98;5.68;;;-2.30;1.00;;;-2.90;89.96;98290.47;5039396;27;129891;-63
2022/04/01 03:35:58;;;;;;;14.45;6.57;;;-2.30;1.00;;;-3.03;90.05;98295.38;5043075;27;119774;-62
2022/04/01 03:38:31;;;;;;;15.02;5.72;;;-2.20;1.00;;;-2.92;90.15;98287.25;5057031;27;119492;-63
2022/04/01 03:41:01;;;;;;;10.52;5.90;;;-2.30;1.00;;;-3.00;89.96;98290.38;5039270;27;129912;-66
2022/04/01 03:43:31;;;;;;;10.88;5.97;;;-2.30;1.00;;;-2.94;89.95;98284.03;5025839;27;129115;-67
2022/04/01 03:46:08;;;;;;;9.95;5.75;;;-2.30;1.00;;;-2.80;89.87;98283.63;5059935;27;118688;-64
2022/04/01 03:48:44;;;;;;;12.23;6.75;;;-2.30;1.00;;;-2.75;89.37;98278.34;5057028;27;119785;-65
2022/04/01 03:51:18;;;;;;;8.93;5.63;;;-2.30;1.00;;;-2.83;89.25;98278.84;5025742;27;129925;-63
2022/04/01 03:53:55;;;;;;;12.18;5.43;;;-2.30;1.00;;;-2.92;89.72;98287.25;5059332;27;129704;-65
2022/04/01 03:56:32;;;;;;;13.10;6.10;;;-2.20;1.00;;;-2.69;89.84;98280.00;5038129;27;122243;-64
2022/04/01 03:59:20;;;;;;;12.35;6.38;;;-2.20;1.00;;;-2.80;89.52;98283.63;5042572;27;120709;-64
2022/04/01 04:02:28;;;;;;;10.40;5.25;;;-2.20;1.00;;;-2.78;89.44;98286.84;5043569;27;129164;-64
2022/04/01 04:04:59;;;;;;;11.02;6.28;;;-2.20;1.00;;;-2.62;89.34;98285.88;5025396;27;129252;-66
2022/04/01 04:07:31;;;;;;;15.95;5.72;;;-2.20;1.00;;;-2.65;89.23;98275.78;5055897;27;119356;-64
2022/04/01 04:10:04;;;;;;;10.73;6.10;;;-2.10;1.00;;;-2.56;89.34;98292.81;5042625;27;118757;-65
2022/04/01 04:12:38;;;;;;;10.15;5.93;;;-2.10;1.00;;;-2.34;88.41;98291.91;5041945;27;128965;-69
2022/04/01 04:15:11;;;;;;;10.45;5.78;;;-2.10;1.00;;;-2.30;87.68;98294.88;5037465;27;129784;-66
2022/04/01 04:17:45;;;;;;;13.57;6.20;;;-2.00;1.00;;;-2.35;87.84;98295.66;5040314;27;119698;-65
2022/04/01 04:20:23;;;;;;;12.93;6.38;;;-2.00;1.00;;;-2.31;87.83;98291.41;5024763;27;119663;-64
2022/04/01 04:23:07;;;;;;;8.57;5.47;;;-2.00;1.00;;;-2.47;88.28;98292.38;5036980;27;130671;-65
2022/04/01 04:25:38;;;;;;;9.35;5.78;;;-2.00;1.00;;;-2.47;88.84;98289.72;5037889;27;130103;-66
2022/04/01 04:28:14;;;;;;;10.93;5.70;;;-2.00;1.00;;;-2.32;88.38;98289.00;5023978;27;119075;-64
2022/04/01 04:30:54;;;;;;;8.50;4.97;;;-1.90;1.00;;;-2.38;88.08;98283.66;5038759;27;120112;-65
2022/04/01 04:33:48;;;;;;;11.35;6.25;;;-1.90;1.00;;;-2.25;88.33;98290.38;5041650;27;130302;-65
2022/04/01 04:36:26;;;;;;;12.00;5.72;;;-1.90;1.00;;;-2.17;87.47;98287.25;5038258;27;129571;-65
2022/04/01 04:39:06;;;;;;;8.73;4.90;;;-1.80;1.00;;;-2.09;87.63;98287.81;5039999;27;119103;-70
2022/04/01 04:41:35;;;;;;;9.15;5.13;;;-1.80;1.00;;;-1.86;86.74;98287.38;5039072;27;120004;-65
2022/04/01 04:44:09;;;;;;;10.35;4.97;;;-1.80;1.00;;;-1.90;86.86;98291.63;5024685;27;128874;-65
2022/04/01 04:46:43;;;;;;;8.82;4.78;;;-1.80;1.00;;;-2.04;87.04;98301.13;5038597;27;129835;-66
2022/04/01 04:49:14;;;;;;;9.98;5.30;;;-1.70;1.00;;;-1.52;85.56;98276.31;5040595;27;121802;-65
2022/04/01 04:51:43;;;;;;;8.23;5.18;;;-1.60;1.00;;;-1.15;84.16;98286.00;5055493;27;122755;-66
2022/04/01 04:54:28;;;;;;;8.13;4.40;;;-1.40;1.00;;;-1.55;84.12;98276.84;5037900;27;130301;-65
2022/04/01 04:57:28;;;;;;;8.68;4.20;;;-1.50;1.00;;;-1.63;84.27;98280.81;5021712;27;129466;-66
2022/04/01 05:00:00;;;;;;;8.48;4.50;;;-1.50;1.00;;;-1.34;83.96;98275.03;5041183;27;118878;-69
2022/04/01 05:03:20;;;;;;;8.25;4.25;;;-1.40;1.00;;;-1.52;84.15;98278.97;5042465;27;119308;-70
2022/04/01 05:05:51;;;;;;;8.25;4.35;;;-1.40;1.00;;;-1.44;84.14;98269.69;5038332;27;129923;-65
2022/04/01 05:08:51;;;;;;;7.75;4.13;;;-1.40;1.00;;;-1.47;83.86;98278.19;5040892;27;129055;-65
2022/04/01 05:11:52;;;;;;;8.60;4.45;;;-1.40;1.00;;;-1.59;84.28;98278.44;5055526;27;121006;-65
2022/04/01 05:14:44;;;;;;;8.40;4.18;;;-1.40;1.00;;;-1.35;83.97;98272.66;5041642;27;118726;-67
2022/04/01 05:17:26;;;;;;;8.68;4.63;;;-1.30;1.00;;;-1.41;83.71;98271.84;5036590;27;130270;-66
2022/04/01 05:20:00;;;;;;;9.52;4.07;;;-1.30;1.00;;;-1.02;82.80;98274.00;5023493;27;128686;-67
2022/04/01 05:22:44;;;;;;;7.20;3.97;;;-1.10;1.00;;;-1.26;82.97;98273.72;5041501;27;119558;-66
2022/04/01 05:25:18;;;;;;;6.93;4.05;;;-1.20;1.00;;;-1.03;82.13;98271.63;5039653;27;119425;-66
2022/04/01 05:27:53;;;;;;;8.40;4.07;;;-1.00;1.00;;;-1.07;82.01;98281.22;5024625;27;128502;-65
2022/04/01 05:30:31;;;;;;;7.43;3.97;;;-1.10;1.00;;;-0.96;81.76;98272.16;5040743;27;128229;-66
2022/04/01 05:33:08;;;;;;;7.05;3.55;;;-1.10;1.00;;;-1.01;81.87;98274.81;5037996;27;119903;-67
2022/04/01 05:35:40;;;;;;;7.70;4.30;;;-1.00;1.00;;;-0.92;81.50;98278.53;5041791;27;119113;-67
2022/04/01 05:38:11;;;;;;;8.30;4.32;;;-1.00;1.00;;;-0.98;82.08;98274.28;5054738;27;130178;-66
2022/04/01 05:40:41;;;;;;;7.43;4.10;;;-1.00;1.00;;;-1.13;82.12;98267.88;5037452;27;130267;-66
2022/04/01 05:43:15;;;;;;;7.72;4.07;;;-1.10;1.00;;;-1.15;82.43;98270.00;5037002;27;122574;-66
2022/04/01 05:46:04;;;;;;;6.75;4.00;;;-1.10;1.00;;;-0.85;81.66;98288.94;5039054;27;121602;-67
2022/04/01 05:48:33;;;;;;;10.07;4.57;;;-0.90;1.00;;;-0.78;81.58;98284.13;5023775;27;128968;-68
2022/04/01 05:51:04;;;;;;;8.50;4.93;;;-0.90;1.00;;;-1.02;82.92;98278.56;5040625;27;129125;-67
2022/04/01 05:53:38;;;;;;;8.80;4.50;;;-1.00;1.00;;;-0.92;82.36;98287.34;5037590;27;119506;-71
2022/04/01 05:56:09;;;;;;;8.98;5.30;;;-0.90;1.00;;;-0.92;82.26;98289.19;5024175;27;119322;-68
2022/04/01 05:58:42;;;;;;;8.90;4.50;;;-0.90;1.00;;;-0.77;81.82;98286.53;5023525;27;129415;-62
2022/04/01 06:01:26;;;;;;;8.52;4.80;;;-0.80;1.00;;;-0.83;81.72;98298.25;5041098;27;129415;-62
2022/04/01 06:04:49;;;;;;;7.22;4.20;;;-0.80;1.00;;;-0.89;82.87;98287.88;5042498;27;119532;-63
2022/04/01 06:07:29;;;;;;;7.35;4.40;;;-0.80;1.00;;;-0.83;82.41;98287.59;5047998;27;119725;-64
2022/04/01 06:10:05;;;;;;;9.52;4.90;;;-0.80;1.00;;;-0.71;82.41;98294.56;5048851;27;129878;-64
2022/04/01 06:13:04;;;;;;;10.27;5.32;;;-0.70;1.00;;;-0.51;81.51;98286.53;5060623;27;128665;-65
2022/04/01 06:16:16;;;;;;;8.05;4.95;;;-0.60;1.00;;;-0.56;82.00;98276.69;5057733;27;120319;-62
2022/04/01 06:19:22;;;;;;;9.30;4.57;;;-0.60;1.00;;;-0.28;81.08;98281.69;5053880;27;118609;-64
2022/04/01 06:22:03;;;;;;;9.38;5.28;;;-0.50;1.00;;;-0.01;80.10;98287.50;5036661;27;129996;-63
2022/04/01 06:24:50;;;;;;;7.80;4.40;;;-0.30;1.00;;;-0.51;81.50;98281.22;5036641;27;129626;-65
2022/04/01 06:27:28;;;;;;;8.85;4.80;;;-0.50;1.00;;;-0.59;82.79;98289.75;5039760;27;119238;-61
2022/04/01 06:30:08;;;;;;;11.23;5.47;;;-0.60;1.00;;;-0.46;82.66;98283.84;5039366;27;119558;-64
2022/04/01 06:33:02;;;;;;;9.70;5.53;;;-0.60;1.00;;;-0.26;82.49;98285.69;5040029;27;130027;-64
2022/04/01 06:35:57;;;;;;;7.78;5.10;;;-0.50;1.00;;;-0.35;82.32;98278.53;5041486;27;129977;-66
2022/04/01 06:38:40;;;;;;;9.70;4.97;;;-0.40;1.00;;;-0.63;83.03;98278.03;5042307;27;121651;-65
2022/04/01 06:41:13;;;;;;;9.32;5.28;;;-0.60;1.00;;;-0.30;82.53;98289.16;5040336;27;121856;-62
2022/04/01 06:43:52;;;;;;;9.05;5.47;;;-0.50;1.00;;;-0.35;81.90;98286.53;5043342;27;129102;-62
2022/04/01 06:46:40;;;;;;;9.15;5.50;;;-0.40;1.00;;;-0.88;84.27;98290.28;5041703;27;130372;-62
2022/04/01 06:49:28;;;;;;;;;;;-0.60;1.00;;;-0.38;83.70;98285.19;5061405;27;119570;-65
2022/04/01 06:52:16;;;;;;;;;;;-0.30;1.00;;;-0.38;82.60;98285.97;5044690;27;119157;-64
2022/04/01 06:55:03;;;;;;;8.90;4.93;;;-0.30;1.00;;;-0.04;81.51;98282.69;5041208;27;130497;-63
2022/04/01 06:57:50;;;;;;;;;;;-0.20;1.00;;;-0.19;82.16;98280.06;5043851;27;129425;-63
2022/04/01 07:00:41;;;;;;;11.38;5.70;;;-0.20;1.00;;;-0.19;81.82;98278.22;5043507;27;119251;-62
2022/04/01 07:03:11;;;;;;;11.68;5.80;;;-0.20;1.00;;;-0.03;81.56;98284.31;5041447;27;119914;-63
2022/04/01 07:05:41;;;;;;;11.57;6.28;;;-0.10;1.00;;;-0.12;82.12;98283.25;5039622;27;130527;-67
2022/04/01 07:08:10;;;;;;;9.73;5.40;;;-0.10;1.00;;;0.29;81.03;98269.75;5040964;27;130873;-64
2022/04/01 07:10:39;;;;;;;8.35;5.05;;;0.10;1.00;;;0.49;79.65;98273.41;5040003;27;119425;-63
2022/04/01 07:13:10;;;;;;;11.15;6.15;;;0.20;1.00;;;0.42;79.01;98278.25;5043250;27;118506;-63
2022/04/01 07:15:38;;;;;;;8.45;5.30;;;0.20;1.00;;;0.34;79.68;98264.44;5040637;27;130332;-64
2022/04/01 07:18:07;;;;;;;9.18;5.47;;;0.20;1.00;;;0.64;78.75;98264.50;5042963;27;129892;-64
2022/04/01 07:20:36;;;;;;;9.18;5.75;;;0.30;1.00;;;0.76;78.87;98256.19;5061422;27;119715;-64
2022/04/01 07:23:06;;;;;;;9.25;5.45;;;0.50;1.00;;;0.49;79.63;98257.41;5046493;27;118550;-64
2022/04/01 07:25:35;;;;;;;9.85;5.50;;;0.30;1.00;;;1.10;77.86;98247.38;5061351;27;130691;-63
2022/04/01 07:28:04;;;;;;;10.00;5.70;;;0.60;1.00;;;1.20;76.84;98257.97;5064356;27;129806;-64
2022/04/01 07:30:32;;;;;;;9.38;5.90;;;0.70;1.00;;;1.38;76.51;98245.81;5060212;27;121785;-63
2022/04/01 07:33:03;;;;;;;8.88;5.35;;;0.80;1.00;;;1.66;74.81;98236.16;5061498;27;121517;-64
2022/04/01 07:35:34;;;;;;;10.52;6.03;;;1.00;1.00;;;1.32;76.00;98245.03;5061149;27;129838;-63
2022/04/01 07:38:03;;;;;;;8.38;5.40;;;0.80;1.00;;;1.38;75.63;98235.91;5045811;27;128954;-66
2022/04/01 07:40:34;;;;;;;8.32;5.10;;;0.90;1.00;;;1.84;74.42;98240.00;5045454;27;118780;-64
2022/04/01 07:43:02;;;;;;;9.15;4.80;;;1.00;1.00;;;1.38;74.89;98230.56;5061267;27;119812;-62
2022/04/01 07:45:33;;;;;;;10.48;5.20;;;0.90;1.00;;;2.02;73.87;98233.09;5045791;27;129532;-63
2022/04/01 07:48:02;;;;;;;11.98;5.57;;;1.20;1.00;;;1.90;73.06;98240.72;5061183;27;129612;-66
2022/04/01 07:50:32;;;;;;;8.93;5.03;;;1.10;1.00;;;1.05;75.92;98243.66;5061320;27;119462;-63
2022/04/01 07:53:02;;;;;;;7.90;4.53;;;0.70;1.00;;;1.27;75.68;98239.75;5061163;27;119132;-64
2022/04/01 07:55:31;;;;;;;8.27;4.82;;;0.90;1.00;;;1.27;75.80;98238.97;5044451;27;129377;-64
2022/04/01 07:58:01;;;;;;;9.15;5.07;;;0.90;1.00;;;1.47;74.81;98238.78;5060034;27;129609;-65
2022/04/01 08:00:31;;;;;;;8.77;5.28;;;1.10;1.00;;;2.05;72.92;98232.53;5061017;27;119386;-62
2022/04/01 08:02:59;;;;;;;9.10;5.22;;;1.40;1.00;;;1.62;74.23;98240.47;5060900;27;119499;-64
2022/04/01 08:05:28;;;;;;;10.10;4.75;;;1.10;1.00;;;1.75;75.04;98239.03;5045580;27;129883;-64
2022/04/01 08:07:56;;;;;;;9.60;5.03;;;1.10;1.00;;;1.49;74.03;98238.50;5060416;27;129700;-65
2022/04/01 08:10:25;;;;;;;9.48;5.00;;;1.10;1.00;;;1.27;75.72;98233.63;5042530;27;119348;-65
2022/04/01 08:12:55;;;;;;;11.10;5.13;;;1.00;1.00;;;1.53;75.36;98231.50;5061251;27;119506;-62
2022/04/01 08:15:24;;;;;;;8.88;4.68;;;1.10;1.00;;;1.76;74.98;98236.06;5060501;27;129810;-65
2022/04/01 08:17:55;;;;;;;9.00;5.47;;;1.10;1.00;;;1.08;76.14;98235.09;5041399;27;130041;-64
2022/04/01 08:20:24;;;;;;;7.35;5.07;;;0.90;1.00;;;1.61;74.89;98233.56;5059471;27;122117;-65
2022/04/01 08:22:53;;;;;;;8.20;5.15;;;1.10;1.00;;;1.78;74.13;98225.88;5045504;27;121578;-63
2022/04/01 08:25:21;;;;;;;8.60;5.18;;;1.30;1.00;;;1.60;73.97;98226.59;5060188;27;129770;-66
2022/04/01 08:27:50;;;;;;;11.02;4.60;;;1.20;1.00;;;1.30;75.52;98212.47;5042121;27;129310;-63
2022/04/01 08:30:18;;;;;;;8.70;5.57;;;1.00;1.00;;;1.82;75.06;98225.31;5042234;27;119690;-65
2022/04/01 08:32:48;;;;;;;7.88;5.30;;;1.20;1.00;;;1.52;74.97;98216.53;5045300;27;119018;-63
2022/04/01 08:35:18;;;;;;;7.93;4.78;;;1.30;1.00;;;1.37;74.93;98218.28;5060132;27;130071;-66
2022/04/01 08:37:46;;;;;;;10.35;5.93;;;1.10;1.00;;;1.92;74.29;98219.84;5060591;27;129710;-62
2022/04/01 08:40:15;;;;;;;8.02;5.30;;;1.30;1.00;;;1.56;74.32;98217.56;5045360;27;120303;-63
2022/04/01 08:42:47;;;;;;;8.55;5.10;;;1.30;1.00;;;1.91;74.27;98215.56;5045040;27;119211;-63
2022/04/01 08:45:18;;;;;;;7.65;5.20;;;1.50;1.00;;;1.58;74.86;98221.53;5058584;27;129668;-65
2022/04/01 08:47:50;;;;;;;10.00;5.15;;;1.40;1.00;;;1.55;74.68;98218.63;5028120;27;128403;-65
2022/04/01 08:50:18;;;;;;;10.23;5.40;;;1.30;1.00;;;1.87;74.25;98225.25;5060402;27;119899;-63
2022/04/01 08:52:47;;;;;;;9.82;5.50;;;1.40;1.00;;;2.03;73.80;98226.66;5062225;27;119185;-62
2022/04/01 08:55:16;;;;;;;8.15;4.80;;;1.50;1.00;;;2.28;72.70;98219.41;5059796;27;130085;-65
2022/04/01 08:57:44;;;;;;;8.40;5.35;;;1.70;1.00;;;2.25;72.39;98225.34;5044684;27;129266;-64
2022/04/01 09:00:36;;;;;;;8.45;4.95;;;1.70;1.00;;;1.78;73.85;98223.19;5060807;27;121724;-63
2022/04/01 09:03:09;;;;;;;9.00;5.75;;;1.50;1.00;;;1.77;74.48;98216.25;5044584;27;118729;-64
2022/04/01 09:05:44;;;;;;;11.60;5.82;;;1.40;1.00;;;1.80;73.60;98223.69;5043817;27;129640;-63
2022/04/01 09:08:15;;;;;;;8.68;5.55;;;1.50;1.00;;;1.90;74.42;98203.25;5056577;27;129465;-63
2022/04/01 09:10:57;;;;;;;8.82;5.70;;;1.50;1.00;;;1.93;74.12;98205.38;5058629;27;122359;-63
2022/04/01 09:13:28;;;;;;;8.88;5.53;;;1.60;1.00;;;2.11;73.34;98222.56;5044699;27;121525;-64
2022/04/01 09:15:57;;;;;;;8.85;5.70;;;1.60;1.00;;;2.31;72.93;98208.91;5059375;27;130301;-62
2022/04/01 09:18:40;;;;;;;9.65;5.95;;;1.80;1.00;;;1.66;73.73;98198.72;5061195;27;129925;-62
2022/04/01 09:21:12;;;;;;;12.00;6.35;;;1.50;1.00;;;1.97;73.94;98203.72;5063500;27;103071;-62
2022/04/01 09:23:47;;;;;;;8.98;6.28;;;1.60;1.00;;;1.50;75.29;98206.13;5059434;27;119929;-62
2022/04/01 09:26:22;;;;;;;10.02;6.30;;;1.40;1.00;;;1.98;74.11;98216.03;5059312;27;129923;-63
2022/04/01 09:28:54;;;;;;;8.88;6.22;;;1.70;1.00;;;1.68;74.46;98212.59;5059363;27;129896;-62
2022/04/01 09:31:25;;;;;;;8.52;5.80;;;1.50;1.00;;;1.48;75.65;98207.47;5059469;27;120110;-63
2022/04/01 09:33:57;;;;;;;8.90;5.95;;;1.50;1.00;;;1.79;75.15;98203.41;5044532;27;118516;-64
2022/04/01 09:36:29;;;;;;;11.23;6.30;;;1.60;1.00;;;1.39;75.61;98216.13;5057778;27;129759;-63
2022/04/01 09:39:01;;;;;;;9.43;6.50;;;1.40;1.00;;;1.70;75.57;98210.47;5058959;27;129576;-63
2022/04/01 09:41:36;;;;;;;10.02;6.18;;;1.50;1.00;;;1.49;76.28;98211.75;5059384;27;119922;-62
2022/04/01 09:44:12;;;;;;;12.75;7.43;;;1.50;1.00;;;2.25;74.39;98204.69;5059424;27;119402;-63
2022/04/01 09:46:47;;;;;;;9.18;6.35;;;1.90;1.00;;;2.03;74.13;98207.94;5059073;27;130198;-62
2022/04/01 09:49:31;;;;;;;12.23;6.32;;;1.80;1.00;;;2.18;73.92;98198.13;5058858;27;130044;-62
2022/04/01 09:52:00;;;;;;;10.27;6.55;;;2.00;1.00;;;1.87;74.09;98207.31;5059181;27;120085;-63
2022/04/01 09:54:29;;;;;;;10.55;6.07;;;1.80;1.00;;;2.24;73.38;98208.44;5041231;27;120021;-63
2022/04/01 09:56:58;;;;;;;9.77;6.80;;;1.90;1.00;;;2.06;74.37;98203.91;5058735;27;130296;-62
2022/04/01 09:59:31;;;;;;;9.52;6.05;;;1.90;1.00;;;2.34;73.39;98192.25;5040443;27;129378;-65
2022/04/01 10:02:00;;;;;;;10.55;6.57;;;2.10;1.00;;;2.77;72.25;98187.91;5057685;27;123312;-63
2022/04/01 10:04:30;;;;;;;9.30;6.55;;;2.20;1.00;;;3.14;70.54;98203.09;5060307;27;122346;-66
2022/04/01 10:07:02;;;;;;;11.02;7.00;;;2.40;1.00;;;2.76;71.62;98194.34;5047291;27;130719;-62
2022/04/01 10:09:33;;;;;;;9.88;6.35;;;2.30;1.00;;;2.88;70.92;98189.31;5062429;27;129650;-63
2022/04/01 10:12:07;;;;;;;9.02;5.75;;;2.30;1.00;;;2.22;72.97;98193.78;5047874;27;117876;-65
2022/04/01 10:14:40;;;;;;;10.55;6.50;;;2.00;1.00;;;3.08;71.68;98187.41;5062742;27;120195;-62
2022/04/01 10:17:12;;;;;;;10.07;5.93;;;2.40;1.00;;;2.57;71.62;98183.66;5061549;27;129619;-64
2022/04/01 10:19:49;;;;;;;10.50;6.07;;;2.20;1.00;;;2.77;72.35;98186.00;5064585;27;129421;-62
2022/04/01 10:22:18;;;;;;;10.85;6.93;;;2.30;1.00;;;2.67;72.10;98194.22;5062290;27;120001;-63
2022/04/01 10:24:55;;;;;;;11.13;6.35;;;2.30;1.00;;;2.98;71.79;98199.88;5047315;27;119142;-64
2022/04/01 10:27:34;;;;;;;10.95;6.00;;;2.40;1.00;;;2.42;72.94;98182.78;5060848;27;130093;-65
2022/04/01 10:30:04;;;;;;;10.52;6.55;;;2.20;1.00;;;2.28;74.45;98189.97;5065064;27;130038;-63
2022/04/01 10:32:40;;;;;;;9.48;6.43;;;2.10;1.00;;;2.17;74.38;98186.63;5046413;27;119540;-63
2022/04/01 10:35:23;;;;;;;10.25;6.13;;;2.00;1.00;;;2.33;74.61;98179.16;5062380;27;119678;-62
2022/04/01 10:38:15;;;;;;;8.82;5.82;;;2.10;1.00;;;2.62;73.57;98180.91;5061671;27;130351;-63
2022/04/01 10:40:49;;;;;;;9.88;6.55;;;2.30;1.00;;;3.12;71.34;98175.81;5061902;27;129466;-63
2022/04/01 10:43:20;;;;;;;9.90;6.57;;;2.70;1.00;;;3.18;70.96;98185.34;5046930;27;119032;-64
2022/04/01 10:46:03;;;;;;;10.65;6.43;;;2.60;1.00;;;3.19;70.53;98189.59;5064191;27;119146;-63
2022/04/01 10:51:42;;;;;;;10.77;7.10;;;2.70;1.00;;;3.55;69.83;98185.50;5062126;27;129488;-64
2022/04/01 10:54:43;;;;;;;10.68;6.38;;;3.00;1.00;;;3.32;69.72;98171.97;5060670;27;122181;-64
2022/04/01 10:57:15;;;;;;;8.70;5.78;;;2.80;1.00;;;3.39;69.83;98172.38;4945710;28;120745;-63
2022/04/01 10:59:46;;;;;;;9.60;5.97;;;2.80;1.00;;;2.93;70.74;98159.78;5045809;27;129582;-64
2022/04/01 11:02:19;;;;;;;10.95;7.28;;;2.60;1.00;;;3.34;71.00;98160.94;5043050;27;129344;-63